createdAt,value
2018-07-28T00:00:11.929Z,18.33
2018-07-28T00:02:40.819Z,17.97
2018-07-28T00:05:10.098Z,17.93
2018-07-28T00:07:38.775Z,19.77
2018-07-28T00:10:11.405Z,18.30
2018-07-28T00:12:40.214Z,18.20
2018-07-28T00:15:10.550Z,18.37
2018-07-28T00:17:40.088Z,18.37
2018-07-28T00:20:10.515Z,17.87
2018-07-28T00:22:39.372Z,17.17
2018-07-28T00:25:10.674Z,18.43
2018-07-28T00:27:39.407Z,17.40
2018-07-28T00:30:10.964Z,17.33
2018-07-28T00:32:39.652Z,16.73
2018-07-28T00:35:08.617Z,17.53
2018-07-28T00:37:37.662Z,16.50
2018-07-28T00:40:07.057Z,16.83
2018-07-28T00:42:36.154Z,17.20
2018-07-28T00:45:05.715Z,17.87
2018-07-28T00:47:34.387Z,17.77
2018-07-28T00:50:03.387Z,17.77
2018-07-28T00:52:32.045Z,17.97
2018-07-28T00:55:00.770Z,18.90
2018-07-28T00:57:29.462Z,19.03
2018-07-28T00:59:58.151Z,19.93
2018-07-28T01:02:26.958Z,19.97
2018-07-28T01:04:55.698Z,20.90
2018-07-28T01:07:24.410Z,20.73
2018-07-28T01:09:53.172Z,21.13
2018-07-28T01:12:21.845Z,21.83
2018-07-28T01:14:50.607Z,21.37
2018-07-28T01:17:19.268Z,21.93
2018-07-28T01:19:47.998Z,21.70
2018-07-28T01:22:16.534Z,20.30
2018-07-28T01:24:45.138Z,19.53
2018-07-28T01:27:13.928Z,20.23
2018-07-28T01:29:42.628Z,19.80
2018-07-28T01:32:11.311Z,20.17
2018-07-28T01:34:40.028Z,19.13
2018-07-28T01:37:08.763Z,20.60
2018-07-28T01:39:37.375Z,20.33
2018-07-28T01:42:06.200Z,20.70
2018-07-28T01:44:34.886Z,20.23
2018-07-28T01:47:03.568Z,19.80
2018-07-28T01:49:32.167Z,21.17
2018-07-28T01:52:03.196Z,19.70
2018-07-28T01:54:31.858Z,19.90
2018-07-28T01:57:00.526Z,18.93
2018-07-28T01:59:29.142Z,19.97
2018-07-28T02:01:57.725Z,20.30
2018-07-28T02:04:26.437Z,19.60
2018-07-28T02:06:55.058Z,19.90
2018-07-28T02:09:23.535Z,19.63
2018-07-28T02:11:52.188Z,19.57
2018-07-28T02:14:20.814Z,19.77
2018-07-28T02:16:49.570Z,19.70
2018-07-28T02:19:18.299Z,19.43
2018-07-28T02:21:46.991Z,19.53
2018-07-28T02:24:15.668Z,20.10
2018-07-28T02:26:44.306Z,20.43
2018-07-28T02:29:12.975Z,20.90
2018-07-28T02:31:41.800Z,21.10
2018-07-28T02:34:10.499Z,21.70
2018-07-28T02:36:38.926Z,21.80
2018-07-28T02:39:10.006Z,20.00
2018-07-28T02:41:39.006Z,21.23
2018-07-28T02:44:07.968Z,21.53
2018-07-28T02:46:36.983Z,20.50
2018-07-28T02:49:06.455Z,21.73
2018-07-28T02:51:35.071Z,20.93
2018-07-28T02:54:03.551Z,20.97
2018-07-28T02:56:32.208Z,21.17
2018-07-28T02:59:00.846Z,22.40
2018-07-28T03:01:29.486Z,20.83
2018-07-28T03:03:58.186Z,20.57
2018-07-28T03:06:26.786Z,19.67
2018-07-28T03:08:55.239Z,20.37
2018-07-28T03:11:23.924Z,20.97
2018-07-28T03:13:52.533Z,20.50
2018-07-28T03:16:21.099Z,21.13
2018-07-28T03:18:49.753Z,18.90
2018-07-28T03:21:18.458Z,20.93
2018-07-28T03:23:47.198Z,20.07
2018-07-28T03:26:15.914Z,20.47
2018-07-28T03:28:44.646Z,19.93
2018-07-28T03:31:13.098Z,19.70
2018-07-28T03:33:41.768Z,19.53
2018-07-28T03:36:10.406Z,19.73
2018-07-28T03:38:39.031Z,18.60
2018-07-28T03:41:07.946Z,17.70
2018-07-28T03:43:36.705Z,19.10
2018-07-28T03:46:05.788Z,19.27
2018-07-28T03:48:34.433Z,17.97
2018-07-28T03:51:02.892Z,18.27
2018-07-28T03:53:31.448Z,19.97
2018-07-28T03:56:00.043Z,20.13
2018-07-28T03:58:28.631Z,20.90
2018-07-28T04:00:57.284Z,21.17
2018-07-28T04:03:25.933Z,22.03
2018-07-28T04:05:54.499Z,20.13
2018-07-28T04:08:23.027Z,21.30
2018-07-28T04:10:51.686Z,22.73
2018-07-28T04:13:20.327Z,23.63
2018-07-28T04:15:49.003Z,23.40
2018-07-28T04:18:17.640Z,21.80
2018-07-28T04:20:46.131Z,21.50
2018-07-28T04:23:14.788Z,21.60
2018-07-28T04:25:43.468Z,20.37
2018-07-28T04:28:12.098Z,18.03
2018-07-28T04:30:40.703Z,22.43
2018-07-28T04:33:09.349Z,26.07
2018-07-28T04:35:37.950Z,26.50
2018-07-28T04:38:06.588Z,22.17
2018-07-28T04:40:35.217Z,21.37
2018-07-28T04:43:03.994Z,20.93
2018-07-28T04:45:32.618Z,19.80
2018-07-28T04:48:01.262Z,18.87
2018-07-28T04:50:29.915Z,18.53
2018-07-28T04:52:58.375Z,17.17
2018-07-28T04:55:27.047Z,16.80
2018-07-28T04:57:55.692Z,16.70
2018-07-28T05:00:24.171Z,22.57
2018-07-28T05:02:52.817Z,22.30
2018-07-28T05:05:21.465Z,19.87
2018-07-28T05:07:50.425Z,18.10
2018-07-28T05:10:19.093Z,18.97
2018-07-28T05:12:48.632Z,17.70
2018-07-28T05:15:17.290Z,17.47
2018-07-28T05:17:45.754Z,16.80
2018-07-28T05:20:14.396Z,14.97
2018-07-28T05:22:43.176Z,14.77
2018-07-28T05:25:11.916Z,14.70
2018-07-28T05:27:40.584Z,13.17
2018-07-28T05:30:10.740Z,14.30
2018-07-28T05:32:39.459Z,15.50
2018-07-28T05:35:09.631Z,14.17
2018-07-28T05:37:38.450Z,16.07
2018-07-28T05:40:07.163Z,14.83
2018-07-28T05:42:35.841Z,15.27
2018-07-28T05:45:05.348Z,14.83
2018-07-28T05:47:34.226Z,14.70
2018-07-28T05:50:03.067Z,14.40
2018-07-28T05:52:31.858Z,15.53
2018-07-28T05:55:00.545Z,15.83
2018-07-28T05:57:29.323Z,15.60
2018-07-28T05:59:57.963Z,15.00
2018-07-28T06:02:26.845Z,15.60
2018-07-28T06:04:56.299Z,15.80
2018-07-28T06:07:24.984Z,15.67
2018-07-28T06:09:54.014Z,16.47
2018-07-28T06:12:22.769Z,17.27
2018-07-28T06:14:51.641Z,19.93
2018-07-28T06:17:20.410Z,20.00
2018-07-28T06:19:49.128Z,22.53
2018-07-28T06:22:17.773Z,22.73
2018-07-28T06:24:46.556Z,23.37
2018-07-28T06:27:15.369Z,22.73
2018-07-28T06:29:44.476Z,22.30
2018-07-28T06:32:13.226Z,22.67
2018-07-28T06:34:42.306Z,21.50
2018-07-28T06:37:11.058Z,21.83
2018-07-28T06:39:39.717Z,20.43
2018-07-28T06:42:08.380Z,22.00
2018-07-28T06:44:36.983Z,21.97
2018-07-28T06:47:05.985Z,24.13
2018-07-28T06:49:34.618Z,22.07
2018-07-28T06:52:03.104Z,21.23
2018-07-28T06:54:31.770Z,19.90
2018-07-28T06:57:00.396Z,20.27
2018-07-28T06:59:29.030Z,20.43
2018-07-28T07:01:57.678Z,18.60
2018-07-28T07:04:26.303Z,19.27
2018-07-28T07:06:54.931Z,19.80
2018-07-28T07:09:23.596Z,20.00
2018-07-28T07:11:52.311Z,18.57
2018-07-28T07:14:21.000Z,18.20
2018-07-28T07:16:50.523Z,19.67
2018-07-28T07:19:19.210Z,18.00
2018-07-28T07:21:48.538Z,19.87
2018-07-28T07:24:17.318Z,16.53
2018-07-28T07:26:45.998Z,17.53
2018-07-28T07:29:14.670Z,17.40
2018-07-28T07:31:43.353Z,17.33
2018-07-28T07:34:12.148Z,17.97
2018-07-28T07:36:41.693Z,17.23
2018-07-28T07:39:10.418Z,18.57
2018-07-28T07:41:39.130Z,17.42
2018-07-28T07:44:07.784Z,16.30
2018-07-28T07:46:36.450Z,15.95
2018-07-28T07:49:05.065Z,15.48
2018-07-28T07:51:33.723Z,14.98
2018-07-28T07:54:02.376Z,16.62
2018-07-28T07:56:31.023Z,17.05
2018-07-28T07:58:59.670Z,17.20
2018-07-28T08:01:29.153Z,16.65
2018-07-28T08:03:57.597Z,16.30
2018-07-28T08:06:26.289Z,15.78
2018-07-28T08:08:54.943Z,14.20
2018-07-28T08:11:23.738Z,14.87
2018-07-28T08:13:52.385Z,15.25
2018-07-28T08:16:21.048Z,14.33
2018-07-28T08:18:49.541Z,14.20
2018-07-28T08:21:18.254Z,14.63
2018-07-28T08:23:46.939Z,13.25
2018-07-28T08:26:15.626Z,12.85
2018-07-28T08:28:44.263Z,13.05
2018-07-28T08:31:12.966Z,13.38
2018-07-28T08:33:41.486Z,12.53
2018-07-28T08:36:10.139Z,11.63
2018-07-28T08:38:38.811Z,12.35
2018-07-28T08:41:07.334Z,12.63
2018-07-28T08:43:36.028Z,12.30
2018-07-28T08:46:05.411Z,13.08
2018-07-28T08:48:34.181Z,14.83
2018-07-28T08:51:02.984Z,14.65
2018-07-28T08:53:32.253Z,13.30
2018-07-28T08:56:00.703Z,11.78
2018-07-28T08:58:29.393Z,10.90
2018-07-28T09:00:58.053Z,11.38
2018-07-28T09:03:26.729Z,10.53
2018-07-28T09:05:55.435Z,10.90
2018-07-28T09:08:24.151Z,10.18
2018-07-28T09:10:52.814Z,9.43
2018-07-28T09:13:21.466Z,9.33
2018-07-28T09:15:50.128Z,8.35
2018-07-28T09:18:18.831Z,8.50
2018-07-28T09:20:47.550Z,9.43
2018-07-28T09:23:16.287Z,9.70
2018-07-28T09:25:44.994Z,9.28
2018-07-28T09:28:13.677Z,9.48
2018-07-28T09:30:42.459Z,9.60
2018-07-28T09:33:11.050Z,9.68
2018-07-28T09:35:39.714Z,9.88
2018-07-28T09:38:08.613Z,9.73
2018-07-28T09:40:37.479Z,10.18
2018-07-28T09:43:06.454Z,9.58
2018-07-28T09:45:35.224Z,9.78
2018-07-28T09:48:04.049Z,10.95
2018-07-28T09:50:32.828Z,9.35
2018-07-28T09:53:01.686Z,9.70
2018-07-28T09:55:30.540Z,9.88
2018-07-28T09:57:59.316Z,9.68
2018-07-28T10:00:33.697Z,9.98
2018-07-28T10:03:02.536Z,10.20
2018-07-28T10:05:31.464Z,9.90
2018-07-28T10:08:00.419Z,9.90
2018-07-28T10:10:30.180Z,10.15
2018-07-28T10:12:59.196Z,9.95
2018-07-28T10:15:27.984Z,9.80
2018-07-28T10:17:57.761Z,9.93
2018-07-28T10:20:26.531Z,9.75
2018-07-28T10:22:55.393Z,9.98
2018-07-28T10:25:24.184Z,9.83
2018-07-28T10:27:52.976Z,9.10
2018-07-28T10:30:21.699Z,9.43
2018-07-28T10:32:50.421Z,9.30
2018-07-28T10:35:19.179Z,9.18
2018-07-28T10:37:47.926Z,8.93
2018-07-28T10:40:16.604Z,8.63
2018-07-28T10:42:45.321Z,8.55
2018-07-28T10:45:14.104Z,8.88
2018-07-28T10:47:42.933Z,9.25
2018-07-28T10:50:11.692Z,8.65
2018-07-28T10:52:40.459Z,9.08
2018-07-28T10:55:09.224Z,8.20
2018-07-28T10:57:38.031Z,8.50
2018-07-28T11:00:07.922Z,8.85
2018-07-28T11:02:36.703Z,8.85
2018-07-28T11:05:06.179Z,8.23
2018-07-28T11:07:34.996Z,8.70
2018-07-28T11:10:03.828Z,8.23
2018-07-28T11:12:32.579Z,8.25
2018-07-28T11:15:01.317Z,8.50
2018-07-28T11:17:30.060Z,8.68
2018-07-28T11:19:58.779Z,8.43
2018-07-28T11:22:27.581Z,8.30
2018-07-28T11:24:56.288Z,8.35
2018-07-28T11:27:25.479Z,7.92
2018-07-28T11:29:54.153Z,7.80
2018-07-28T11:32:39.669Z,7.15
2018-07-28T11:35:20.032Z,7.75
2018-07-28T11:38:35.877Z,7.78
2018-07-28T11:41:21.508Z,8.03
2018-07-28T11:44:07.085Z,8.18
2018-07-28T11:46:36.049Z,8.13
2018-07-28T11:49:05.001Z,8.15
2018-07-28T11:51:33.706Z,8.70
2018-07-28T11:54:02.812Z,8.05
2018-07-28T11:56:31.596Z,8.33
2018-07-28T11:59:00.582Z,8.35
2018-07-28T12:01:29.311Z,8.20
2018-07-28T12:03:57.823Z,8.23
2018-07-28T12:06:27.279Z,8.40
2018-07-28T12:08:56.071Z,8.38
2018-07-28T12:11:24.771Z,8.25
2018-07-28T12:13:53.452Z,7.92
2018-07-28T12:16:21.990Z,8.28
2018-07-28T12:18:51.689Z,8.05
2018-07-28T12:21:20.704Z,8.00
2018-07-28T12:23:49.420Z,7.75
2018-07-28T12:26:18.136Z,8.38
2018-07-28T12:28:46.803Z,7.40
2018-07-28T12:31:15.511Z,7.70
2018-07-28T12:33:44.341Z,7.42
2018-07-28T12:36:13.691Z,7.60
2018-07-28T12:38:42.409Z,7.25
2018-07-28T12:41:11.151Z,7.67
2018-07-28T12:43:39.964Z,7.47
2018-07-28T12:46:08.648Z,7.55
2018-07-28T12:48:37.365Z,7.92
2018-07-28T12:51:06.141Z,7.42
2018-07-28T12:53:34.958Z,7.42
2018-07-28T12:56:03.762Z,7.42
2018-07-28T12:58:32.446Z,7.10
2018-07-28T13:01:01.223Z,7.83
2018-07-28T13:03:30.020Z,7.72
2018-07-28T13:05:58.676Z,7.25
2018-07-28T13:08:27.470Z,7.47
2018-07-28T13:10:56.623Z,7.87
2018-07-28T13:13:25.693Z,7.90
2018-07-28T13:15:54.183Z,7.87
2018-07-28T13:18:22.971Z,7.87
2018-07-28T13:20:51.760Z,8.68
2018-07-28T13:23:20.488Z,8.15
2018-07-28T13:25:49.188Z,8.00
2018-07-28T13:28:17.886Z,7.40
2018-07-28T13:30:46.579Z,8.53
2018-07-28T13:33:16.094Z,7.60
2018-07-28T13:35:44.969Z,7.70
2018-07-28T13:38:13.892Z,7.83
2018-07-28T13:40:42.627Z,8.10
2018-07-28T13:43:11.293Z,7.60
2018-07-28T13:45:40.984Z,7.80
2018-07-28T13:48:09.705Z,8.00
2018-07-28T13:50:38.461Z,7.95
2018-07-28T13:53:08.024Z,7.50
2018-07-28T13:55:36.711Z,7.83
2018-07-28T13:58:05.563Z,8.05
2018-07-28T14:00:34.736Z,8.30
2018-07-28T14:03:03.939Z,8.05
2018-07-28T14:05:34.286Z,7.42
2018-07-28T14:08:03.119Z,7.92
2018-07-28T14:10:31.793Z,8.10
2018-07-28T14:13:00.628Z,7.62
2018-07-28T14:15:29.396Z,7.47
2018-07-28T14:17:58.135Z,7.95
2018-07-28T14:20:27.156Z,7.28
2018-07-28T14:22:56.326Z,7.72
2018-07-28T14:25:25.155Z,6.97
2018-07-28T14:27:54.839Z,7.00
2018-07-28T14:30:23.597Z,6.65
2018-07-28T14:32:53.015Z,6.95
2018-07-28T14:35:21.778Z,7.17
2018-07-28T14:37:50.592Z,7.35
2018-07-28T14:40:20.751Z,7.30
2018-07-28T14:42:49.560Z,7.60
2018-07-28T14:45:18.551Z,7.12
2018-07-28T14:47:47.378Z,6.90
2018-07-28T14:50:16.149Z,6.83
2018-07-28T14:52:44.946Z,6.12
2018-07-28T14:55:13.752Z,6.62
2018-07-28T14:57:42.812Z,6.70
2018-07-28T15:00:11.949Z,6.45
2018-07-28T15:02:40.698Z,6.80
2018-07-28T15:05:09.474Z,6.87
2018-07-28T15:07:38.756Z,7.22
2018-07-28T15:10:07.619Z,6.75
2018-07-28T15:12:36.306Z,7.08
2018-07-28T15:15:05.677Z,7.30
2018-07-28T15:17:34.432Z,6.92
2018-07-28T15:20:03.512Z,6.97
2018-07-28T15:22:33.071Z,7.10
2018-07-28T15:25:01.833Z,7.08
2018-07-28T15:27:30.554Z,7.00
2018-07-28T15:29:59.232Z,6.92
2018-07-28T15:32:28.495Z,6.80
2018-07-28T15:34:57.420Z,6.97
2018-07-28T15:37:26.226Z,6.80
2018-07-28T15:39:55.411Z,6.92
2018-07-28T15:42:24.651Z,6.78
2018-07-28T15:44:53.418Z,6.72
2018-07-28T15:47:22.199Z,7.22
2018-07-28T15:49:50.834Z,7.28
2018-07-28T15:52:20.746Z,6.67
2018-07-28T15:54:50.271Z,7.22
2018-07-28T15:57:18.937Z,6.67
2018-07-28T15:59:48.773Z,7.33
2018-07-28T16:02:17.424Z,7.10
2018-07-28T16:04:46.199Z,7.03
2018-07-28T16:07:15.011Z,6.58
2018-07-28T16:09:43.760Z,6.80
2018-07-28T16:12:12.482Z,6.42
2018-07-28T16:14:41.126Z,7.22
2018-07-28T16:17:10.448Z,7.20
2018-07-28T16:19:38.911Z,6.42
2018-07-28T16:22:07.597Z,6.60
2018-07-28T16:24:36.703Z,6.97
2018-07-28T16:27:05.751Z,6.90
2018-07-28T16:29:34.874Z,7.00
2018-07-28T16:32:03.623Z,6.42
2018-07-28T16:34:32.316Z,6.35
2018-07-28T16:37:01.131Z,6.40
2018-07-28T16:39:29.840Z,6.03
2018-07-28T16:41:59.411Z,5.67
2018-07-28T16:44:30.805Z,5.78
2018-07-28T16:46:59.335Z,5.80
2018-07-28T16:49:27.959Z,5.83
2018-07-28T16:51:56.390Z,6.30
2018-07-28T16:54:25.028Z,6.47
2018-07-28T16:56:53.852Z,7.58
2018-07-28T16:59:22.483Z,7.28
2018-07-28T17:01:51.136Z,6.90
2018-07-28T17:04:19.903Z,7.92
2018-07-28T17:06:48.749Z,7.30
2018-07-28T17:09:17.418Z,6.87
2018-07-28T17:11:46.149Z,6.97
2018-07-28T17:14:14.954Z,6.80
2018-07-28T17:16:43.655Z,6.37
2018-07-28T17:19:12.338Z,7.22
2018-07-28T17:21:41.123Z,7.15
2018-07-28T17:24:09.769Z,6.45
2018-07-28T17:26:38.376Z,6.72
2018-07-28T17:29:07.063Z,6.90
2018-07-28T17:31:36.903Z,7.00
2018-07-28T17:34:06.386Z,6.67
2018-07-28T17:36:35.091Z,6.80
2018-07-28T17:39:05.211Z,6.40
2018-07-28T17:41:33.917Z,6.42
2018-07-28T17:44:02.655Z,6.20
2018-07-28T17:46:31.356Z,6.72
2018-07-28T17:49:00.072Z,6.70
2018-07-28T17:51:28.810Z,6.20
2018-07-28T17:53:57.508Z,5.92
2018-07-28T17:56:26.198Z,6.22
2018-07-28T17:58:54.862Z,6.50
2018-07-28T18:01:23.508Z,6.42
2018-07-28T18:03:52.169Z,6.15
2018-07-28T18:06:20.913Z,6.42
2018-07-28T18:08:49.743Z,6.08
2018-07-28T18:11:18.405Z,5.92
2018-07-28T18:13:47.037Z,6.15
2018-07-28T18:16:15.659Z,6.58
2018-07-28T18:18:44.358Z,5.95
2018-07-28T18:21:12.996Z,5.87
2018-07-28T18:23:41.601Z,5.90
2018-07-28T18:26:10.297Z,6.12
2018-07-28T18:28:38.905Z,6.42
2018-07-28T18:31:07.544Z,6.17
2018-07-28T18:33:36.222Z,6.30
2018-07-28T18:36:05.091Z,6.35
2018-07-28T18:38:33.815Z,5.80
2018-07-28T18:41:02.587Z,5.97
2018-07-28T18:43:31.256Z,6.00
2018-07-28T18:45:59.898Z,5.85
2018-07-28T18:48:28.525Z,6.35
2018-07-28T18:50:57.256Z,5.53
2018-07-28T18:53:25.923Z,5.85
2018-07-28T18:55:54.681Z,6.00
2018-07-28T18:58:23.296Z,5.50
2018-07-28T19:00:51.950Z,5.40
2018-07-28T19:03:20.604Z,5.47
2018-07-28T19:05:49.233Z,5.83
2018-07-28T19:08:17.938Z,6.22
2018-07-28T19:10:46.471Z,6.80
2018-07-28T19:13:20.638Z,6.65
2018-07-28T19:15:49.301Z,6.62
2018-07-28T19:18:23.414Z,6.73
2018-07-28T19:20:52.317Z,6.78
2018-07-28T19:23:27.336Z,7.40
2018-07-28T19:25:56.183Z,7.50
2018-07-28T19:29:34.178Z,6.97
2018-07-28T19:32:03.865Z,6.50
2018-07-28T19:34:32.402Z,6.93
2018-07-28T19:37:06.494Z,6.67
2018-07-28T19:39:35.313Z,6.53
2018-07-28T19:42:09.737Z,6.95
2018-07-28T19:44:38.619Z,6.37
2018-07-28T19:47:08.006Z,6.97
2018-07-28T19:49:37.403Z,6.53
2018-07-28T19:52:06.338Z,6.70
2018-07-28T19:54:35.122Z,6.23
2018-07-28T19:57:03.945Z,6.00
2018-07-28T19:59:32.704Z,6.70
2018-07-28T20:02:01.189Z,5.90
2018-07-28T20:04:29.856Z,6.27
2018-07-28T20:06:58.635Z,6.73
2018-07-28T20:09:27.386Z,5.87
2018-07-28T20:11:56.112Z,6.03
2018-07-28T20:14:24.862Z,7.07
2018-07-28T20:16:53.589Z,7.73
2018-07-28T20:19:22.400Z,7.20
2018-07-28T20:21:51.681Z,6.40
2018-07-28T20:24:20.406Z,7.10
2018-07-28T20:26:49.139Z,7.20
2018-07-28T20:29:17.806Z,7.17
2018-07-28T20:31:46.501Z,7.53
2018-07-28T20:34:15.331Z,6.77
2018-07-28T20:36:43.826Z,6.40
2018-07-28T20:39:12.988Z,6.80
2018-07-28T20:41:43.682Z,6.90
2018-07-28T20:44:12.437Z,7.57
2018-07-28T20:46:41.680Z,6.70
2018-07-28T20:49:10.357Z,7.23
2018-07-28T20:51:39.065Z,7.43
2018-07-28T20:54:07.918Z,6.60
2018-07-28T20:56:36.631Z,6.23
2018-07-28T20:59:05.624Z,6.63
2018-07-28T21:01:34.303Z,6.97
2018-07-28T21:04:03.058Z,7.97
2018-07-28T21:06:31.806Z,8.87
2018-07-28T21:09:00.651Z,8.17
2018-07-28T21:11:29.313Z,8.67
2018-07-28T21:13:58.056Z,8.37
2018-07-28T21:16:26.695Z,7.70
2018-07-28T21:18:55.476Z,7.77
2018-07-28T21:21:23.955Z,8.07
2018-07-28T21:23:52.657Z,7.60
2018-07-28T21:26:22.282Z,7.67
2018-07-28T21:28:51.815Z,7.97
2018-07-28T21:31:20.615Z,7.60
2018-07-28T21:33:49.736Z,8.30
2018-07-28T21:36:18.436Z,7.10
2018-07-28T21:38:47.145Z,6.87
2018-07-28T21:41:15.882Z,7.87
2018-07-28T21:43:45.129Z,7.33
2018-07-28T21:46:13.866Z,8.10
2018-07-28T21:48:42.378Z,7.50
2018-07-28T21:51:11.175Z,8.00
2018-07-28T21:53:40.013Z,8.10
2018-07-28T21:56:08.730Z,8.10
2018-07-28T21:58:37.408Z,8.50
2018-07-28T22:01:13.194Z,8.20
2018-07-28T22:03:42.251Z,7.90
2018-07-28T22:06:11.057Z,8.23
2018-07-28T22:08:39.718Z,7.70
2018-07-28T22:11:08.268Z,7.97
2018-07-28T22:13:37.013Z,7.97
2018-07-28T22:16:05.798Z,7.77
2018-07-28T22:18:34.429Z,8.03
2018-07-28T22:21:03.161Z,8.00
2018-07-28T22:23:31.846Z,7.47
2018-07-28T22:26:00.933Z,6.83
2018-07-28T22:28:29.711Z,6.83
2018-07-28T22:30:58.150Z,6.63
2018-07-28T22:33:27.047Z,7.20
2018-07-28T22:35:55.730Z,6.67
2018-07-28T22:38:24.433Z,6.33
2018-07-28T22:40:53.183Z,6.90
2018-07-28T22:43:21.813Z,7.20
2018-07-28T22:45:50.459Z,7.30
2018-07-28T22:48:19.630Z,6.93
2018-07-28T22:50:48.360Z,6.60
2018-07-28T22:53:17.086Z,6.80
2018-07-28T22:55:45.966Z,6.83
2018-07-28T22:58:14.421Z,7.07
2018-07-28T23:00:43.238Z,6.77
2018-07-28T23:03:11.953Z,6.43
2018-07-28T23:05:40.600Z,6.80
2018-07-28T23:08:09.196Z,7.10
2018-07-28T23:10:37.670Z,6.47
2018-07-28T23:13:06.215Z,6.50
2018-07-28T23:15:34.945Z,6.70
2018-07-28T23:18:03.499Z,6.80
2018-07-28T23:20:32.269Z,7.37
2018-07-28T23:23:01.058Z,7.07
2018-07-28T23:25:29.697Z,7.03
2018-07-28T23:27:58.332Z,7.00
2018-07-28T23:30:27.573Z,6.87
2018-07-28T23:32:56.463Z,7.50
2018-07-28T23:35:25.051Z,7.23
2018-07-28T23:37:53.741Z,6.83
2018-07-28T23:40:22.466Z,7.40
2018-07-28T23:42:51.263Z,7.50
2018-07-28T23:45:20.270Z,8.00
2018-07-28T23:47:48.961Z,7.33
2018-07-28T23:50:17.677Z,7.93
2018-07-28T23:52:46.414Z,7.70
2018-07-28T23:55:15.011Z,8.60
2018-07-28T23:57:43.721Z,8.53
